sensor_id;sensor_type;location;lat;lon;timestamp;pressure;altitude;pressure_sealevel;temperature;humidity
38530;BME280;24301;54.332;48.386;2023-03-13T00:01:33;97739.81;;;4.26;100.00
38530;BME280;24301;54.332;48.386;2023-03-13T00:04:00;97728.53;;;4.26;100.00
38530;BME280;24301;54.332;48.386;2023-03-13T00:06:29;97718.13;;;4.26;100.00
38530;BME280;24301;54.332;48.386;2023-03-13T00:08:57;97726.81;;;4.26;100.00
38530;BME280;24301;54.332;48.386;2023-03-13T00:11:26;97716.44;;;4.22;100.00
38530;BME280;24301;54.332;48.386;2023-03-13T00:13:59;97707.78;;;4.21;100.00
38530;BME280;24301;54.332;48.386;2023-03-13T00:16:26;97703.47;;;4.20;100.00
38530;BME280;24301;54.332;48.386;2023-03-13T00:18:53;97698.25;;;4.20;100.00
38530;BME280;24301;54.332;48.386;2023-03-13T00:21:22;97712.13;;;4.19;100.00
38530;BME280;24301;54.332;48.386;2023-03-13T00:23:48;97715.59;;;4.21;100.00
38530;BME280;24301;54.332;48.386;2023-03-13T00:26:17;97700.81;;;4.22;100.00
38530;BME280;24301;54.332;48.386;2023-03-13T00:28:44;97689.56;;;4.21;100.00
38530;BME280;24301;54.332;48.386;2023-03-13T00:31:12;97697.34;;;4.23;100.00
38530;BME280;24301;54.332;48.386;2023-03-13T00:33:40;97682.69;;;4.14;100.00
38530;BME280;24301;54.332;48.386;2023-03-13T00:36:10;97700.84;;;4.19;100.00
38530;BME280;24301;54.332;48.386;2023-03-13T00:38:37;97702.63;;;4.15;100.00
38530;BME280;24301;54.332;48.386;2023-03-13T00:43:32;97707.09;;;3.99;100.00
38530;BME280;24301;54.332;48.386;2023-03-13T00:45:59;97685.44;;;3.97;100.00
38530;BME280;24301;54.332;48.386;2023-03-13T00:48:26;97696.75;;;3.94;100.00
38530;BME280;24301;54.332;48.386;2023-03-13T00:50:52;97692.44;;;3.87;100.00
38530;BME280;24301;54.332;48.386;2023-03-13T00:53:19;97688.09;;;3.89;100.00
38530;BME280;24301;54.332;48.386;2023-03-13T00:56:06;97684.63;;;3.93;100.00
38530;BME280;24301;54.332;48.386;2023-03-13T00:58:35;97675.13;;;3.87;100.00
38530;BME280;24301;54.332;48.386;2023-03-13T01:01:15;97687.28;;;3.85;100.00
38530;BME280;24301;54.332;48.386;2023-03-13T01:03:43;97682.09;;;3.81;100.00
38530;BME280;24301;54.332;48.386;2023-03-13T01:06:11;97687.34;;;3.79;100.00
38530;BME280;24301;54.332;48.386;2023-03-13T01:08:39;97695.97;;;3.78;100.00
38530;BME280;24301;54.332;48.386;2023-03-13T01:11:08;97696.03;;;3.73;100.00
38530;BME280;24301;54.332;48.386;2023-03-13T01:13:34;97700.34;;;3.74;100.00
38530;BME280;24301;54.332;48.386;2023-03-13T01:16:09;97676.09;;;3.72;100.00
38530;BME280;24301;54.332;48.386;2023-03-13T01:18:36;97703.00;;;3.65;100.00
38530;BME280;24301;54.332;48.386;2023-03-13T01:21:03;97681.41;;;3.57;100.00
38530;BME280;24301;54.332;48.386;2023-03-13T01:23:29;97673.59;;;3.60;100.00
38530;BME280;24301;54.332;48.386;2023-03-13T01:25:56;97686.56;;;3.60;100.00
38530;BME280;24301;54.332;48.386;2023-03-13T01:28:23;97676.22;;;3.55;100.00
38530;BME280;24301;54.332;48.386;2023-03-13T01:30:49;97671.00;;;3.57;100.00
38530;BME280;24301;54.332;48.386;2023-03-13T01:33:16;97658.03;;;3.58;100.00
38530;BME280;24301;54.332;48.386;2023-03-13T01:35:42;97681.44;;;3.55;100.00
38530;BME280;24301;54.332;48.386;2023-03-13T01:38:08;97682.31;;;3.50;100.00
38530;BME280;24301;54.332;48.386;2023-03-13T01:43:18;97666.72;;;3.54;100.00
38530;BME280;24301;54.332;48.386;2023-03-13T01:50:56;97666.69;;;3.57;100.00
38530;BME280;24301;54.332;48.386;2023-03-13T01:53:29;97664.09;;;3.57;100.00
38530;BME280;24301;54.332;48.386;2023-03-13T01:55:59;97665.81;;;3.57;100.00
38530;BME280;24301;54.332;48.386;2023-03-13T01:58:27;97664.06;;;3.59;100.00
38530;BME280;24301;54.332;48.386;2023-03-13T02:00:54;97670.13;;;3.58;100.00
38530;BME280;24301;54.332;48.386;2023-03-13T02:03:21;97686.56;;;3.60;100.00
38530;BME280;24301;54.332;48.386;2023-03-13T02:05:49;97661.50;;;3.57;100.00
38530;BME280;24301;54.332;48.386;2023-03-13T02:08:26;97651.94;;;3.58;100.00
38530;BME280;24301;54.332;48.386;2023-03-13T02:11:03;97662.38;;;3.52;100.00
38530;BME280;24301;54.332;48.386;2023-03-13T02:13:32;97647.69;;;3.48;100.00
38530;BME280;24301;54.332;48.386;2023-03-13T02:15:58;97658.03;;;3.52;100.00
38530;BME280;24301;54.332;48.386;2023-03-13T02:18:25;97649.41;;;3.50;100.00
38530;BME280;24301;54.332;48.386;2023-03-13T02:20:55;97654.53;;;3.59;100.00
38530;BME280;24301;54.332;48.386;2023-03-13T02:23:34;97648.41;;;3.65;100.00
38530;BME280;24301;54.332;48.386;2023-03-13T02:26:03;97631.94;;;3.66;100.00
38530;BME280;24301;54.332;48.386;2023-03-13T02:28:34;97634.53;;;3.69;100.00
38530;BME280;24301;54.332;48.386;2023-03-13T02:31:05;97626.69;;;3.74;100.00
38530;BME280;24301;54.332;48.386;2023-03-13T02:33:36;97639.66;;;3.79;100.00
38530;BME280;24301;54.332;48.386;2023-03-13T02:36:04;97637.03;;;3.82;100.00
38530;BME280;24301;54.332;48.386;2023-03-13T02:38:36;97627.47;;;3.84;100.00
38530;BME280;24301;54.332;48.386;2023-03-13T02:41:03;97641.31;;;3.86;100.00
38530;BME280;24301;54.332;48.386;2023-03-13T02:43:36;97640.41;;;3.93;100.00
38530;BME280;24301;54.332;48.386;2023-03-13T02:46:09;97641.25;;;3.95;100.00
38530;BME280;24301;54.332;48.386;2023-03-13T02:48:45;97630.84;;;3.95;100.00
38530;BME280;24301;54.332;48.386;2023-03-13T02:51:40;97642.06;;;4.00;100.00
38530;BME280;24301;54.332;48.386;2023-03-13T02:54:12;97639.47;;;4.00;100.00
38530;BME280;24301;54.332;48.386;2023-03-13T02:56:40;97641.25;;;3.95;100.00
38530;BME280;24301;54.332;48.386;2023-03-13T02:59:09;97643.00;;;3.90;100.00
38530;BME280;24301;54.332;48.386;2023-03-13T03:01:38;97647.34;;;3.91;100.00
38530;BME280;24301;54.332;48.386;2023-03-13T03:04:04;97624.00;;;3.85;100.00
38530;BME280;24301;54.332;48.386;2023-03-13T03:06:30;97630.88;;;3.92;100.00
38530;BME280;24301;54.332;48.386;2023-03-13T03:08:56;97654.22;;;3.98;100.00
38530;BME280;24301;54.332;48.386;2023-03-13T03:11:24;97694.06;;;4.05;100.00
38530;BME280;24301;54.332;48.386;2023-03-13T03:13:57;97684.66;;;3.87;100.00
38530;BME280;24301;54.332;48.386;2023-03-13T03:16:24;97705.56;;;3.71;100.00
38530;BME280;24301;54.332;48.386;2023-03-13T03:18:50;97704.81;;;3.58;100.00
38530;BME280;24301;54.332;48.386;2023-03-13T03:21:16;97717.91;;;3.41;100.00
38530;BME280;24301;54.332;48.386;2023-03-13T03:23:42;97718.81;;;3.28;100.00
38530;BME280;24301;54.332;48.386;2023-03-13T03:26:08;97725.78;;;3.23;100.00
38530;BME280;24301;54.332;48.386;2023-03-13T03:28:34;97749.19;;;3.10;100.00
38530;BME280;24301;54.332;48.386;2023-03-13T03:31:05;97753.53;;;3.10;100.00
38530;BME280;24301;54.332;48.386;2023-03-13T03:33:33;97756.13;;;3.05;100.00
38530;BME280;24301;54.332;48.386;2023-03-13T03:36:00;97750.09;;;3.03;100.00
38530;BME280;24301;54.332;48.386;2023-03-13T03:38:28;97761.38;;;2.99;100.00
38530;BME280;24301;54.332;48.386;2023-03-13T03:40:54;97764.84;;;2.95;100.00
38530;BME280;24301;54.332;48.386;2023-03-13T03:43:20;97768.31;;;2.87;100.00
38530;BME280;24301;54.332;48.386;2023-03-13T03:45:46;97782.13;;;2.90;100.00
38530;BME280;24301;54.332;48.386;2023-03-13T03:48:12;97773.53;;;2.78;100.00
38530;BME280;24301;54.332;48.386;2023-03-13T03:50:38;97782.19;;;2.74;100.00
38530;BME280;24301;54.332;48.386;2023-03-13T03:53:04;97788.25;;;2.64;100.00
38530;BME280;24301;54.332;48.386;2023-03-13T03:55:30;97788.28;;;2.51;100.00
38530;BME280;24301;54.332;48.386;2023-03-13T03:57:56;97790.88;;;2.40;100.00
38530;BME280;24301;54.332;48.386;2023-03-13T04:00:46;97801.25;;;2.36;100.00
38530;BME280;24301;54.332;48.386;2023-03-13T04:03:13;97810.78;;;2.29;100.00
38530;BME280;24301;54.332;48.386;2023-03-13T04:05:40;97809.91;;;2.32;100.00
38530;BME280;24301;54.332;48.386;2023-03-13T04:08:06;97806.44;;;2.34;100.00
38530;BME280;24301;54.332;48.386;2023-03-13T04:10:32;97813.34;;;2.30;100.00
38530;BME280;24301;54.332;48.386;2023-03-13T04:12:58;97801.28;;;2.17;100.00
38530;BME280;24301;54.332;48.386;2023-03-13T04:15:24;97805.59;;;2.18;100.00
38530;BME280;24301;54.332;48.386;2023-03-13T04:17:50;97809.91;;;2.16;100.00
38530;BME280;24301;54.332;48.386;2023-03-13T04:20:18;97811.59;;;2.14;100.00
38530;BME280;24301;54.332;48.386;2023-03-13T04:22:44;97817.66;;;2.10;100.00
38530;BME280;24301;54.332;48.386;2023-03-13T04:25:11;97815.94;;;2.07;100.00
38530;BME280;24301;54.332;48.386;2023-03-13T04:27:38;97812.50;;;2.05;100.00
38530;BME280;24301;54.332;48.386;2023-03-13T04:30:05;97825.41;;;2.02;100.00
38530;BME280;24301;54.332;48.386;2023-03-13T04:32:37;97825.44;;;1.91;100.00
38530;BME280;24301;54.332;48.386;2023-03-13T04:35:03;97828.00;;;1.77;100.00
38530;BME280;24301;54.332;48.386;2023-03-13T04:37:59;97842.63;;;1.66;100.00
38530;BME280;24301;54.332;48.386;2023-03-13T04:40:38;97842.59;;;1.52;100.00
38530;BME280;24301;54.332;48.386;2023-03-13T04:43:30;97846.81;;;1.37;99.76
38530;BME280;24301;54.332;48.386;2023-03-13T04:46:05;97852.88;;;1.36;100.00
38530;BME280;24301;54.332;48.386;2023-03-13T04:49:07;97858.91;;;1.38;100.00
38530;BME280;24301;54.332;48.386;2023-03-13T04:51:46;97869.28;;;1.38;100.00
38530;BME280;24301;54.332;48.386;2023-03-13T04:54:23;97880.53;;;1.42;100.00
38530;BME280;24301;54.332;48.386;2023-03-13T04:57:05;97881.34;;;1.36;100.00
38530;BME280;24301;54.332;48.386;2023-03-13T04:59:51;97878.75;;;1.33;100.00
38530;BME280;24301;54.332;48.386;2023-03-13T05:02:20;97882.19;;;1.29;100.00
38530;BME280;24301;54.332;48.386;2023-03-13T05:05:12;97888.25;;;1.29;100.00
38530;BME280;24301;54.332;48.386;2023-03-13T05:08:01;97887.34;;;1.26;100.00
38530;BME280;24301;54.332;48.386;2023-03-13T05:10:37;97895.97;;;1.25;100.00
38530;BME280;24301;54.332;48.386;2023-03-13T05:13:14;97907.22;;;1.27;100.00
38530;BME280;24301;54.332;48.386;2023-03-13T05:16:08;97902.88;;;1.23;100.00
38530;BME280;24301;54.332;48.386;2023-03-13T05:18:54;97912.41;;;1.30;100.00
38530;BME280;24301;54.332;48.386;2023-03-13T05:21:46;97916.69;;;1.22;100.00
38530;BME280;24301;54.332;48.386;2023-03-13T05:24:25;97917.50;;;1.19;100.00
38530;BME280;24301;54.332;48.386;2023-03-13T05:27:26;97933.06;;;1.19;100.00
38530;BME280;24301;54.332;48.386;2023-03-13T05:30:12;97939.09;;;1.20;100.00
38530;BME280;24301;54.332;48.386;2023-03-13T05:33:04;97946.00;;;1.18;100.00
38530;BME280;24301;54.332;48.386;2023-03-13T05:35:53;97958.00;;;1.06;100.00
38530;BME280;24301;54.332;48.386;2023-03-13T05:38:45;97956.16;;;0.90;100.00
38530;BME280;24301;54.332;48.386;2023-03-13T05:41:46;97952.63;;;0.80;100.00
38530;BME280;24301;54.332;48.386;2023-03-13T05:44:23;97952.59;;;0.78;100.00
38530;BME280;24301;54.332;48.386;2023-03-13T05:46:59;97965.56;;;0.81;100.00
38530;BME280;24301;54.332;48.386;2023-03-13T05:49:40;97964.66;;;0.76;100.00
38530;BME280;24301;54.332;48.386;2023-03-13T05:52:23;97966.44;;;0.83;100.00
38530;BME280;24301;54.332;48.386;2023-03-13T05:54:49;97961.34;;;0.90;100.00
38530;BME280;24301;54.332;48.386;2023-03-13T05:57:38;97965.66;;;0.92;100.00
38530;BME280;24301;54.332;48.386;2023-03-13T06:00:27;97976.09;;;1.03;100.00
38530;BME280;24301;54.332;48.386;2023-03-13T06:03:28;97973.53;;;1.09;100.00
38530;BME280;24301;54.332;48.386;2023-03-13T06:05:57;97985.63;;;1.10;100.00
38530;BME280;24301;54.332;48.386;2023-03-13T06:08:31;97975.25;;;1.07;100.00
38530;BME280;24301;54.332;48.386;2023-03-13T06:10:58;97988.25;;;1.15;100.00
38530;BME280;24301;54.332;48.386;2023-03-13T06:13:25;97993.50;;;1.23;100.00
38530;BME280;24301;54.332;48.386;2023-03-13T06:15:54;97989.22;;;1.28;100.00
38530;BME280;24301;54.332;48.386;2023-03-13T06:18:50;98000.56;;;1.42;100.00
38530;BME280;24301;54.332;48.386;2023-03-13T06:21:16;97999.66;;;1.42;100.00
38530;BME280;24301;54.332;48.386;2023-03-13T06:23:42;98018.66;;;1.39;100.00
38530;BME280;24301;54.332;48.386;2023-03-13T06:26:08;98018.63;;;1.36;100.00
38530;BME280;24301;54.332;48.386;2023-03-13T06:28:34;98018.63;;;1.36;100.00
38530;BME280;24301;54.332;48.386;2023-03-13T06:31:02;98031.56;;;1.36;100.00
38530;BME280;24301;54.332;48.386;2023-03-13T06:33:28;98030.78;;;1.43;100.00
38530;BME280;24301;54.332;48.386;2023-03-13T06:35:56;98039.41;;;1.42;100.00
38530;BME280;24301;54.332;48.386;2023-03-13T06:38:26;98039.34;;;1.36;100.00
38530;BME280;24301;54.332;48.386;2023-03-13T06:40:52;98027.31;;;1.43;100.00
38530;BME280;24301;54.332;48.386;2023-03-13T06:43:18;98035.13;;;1.48;100.00
38530;BME280;24301;54.332;48.386;2023-03-13T06:45:44;98044.66;;;1.53;100.00
38530;BME280;24301;54.332;48.386;2023-03-13T06:48:10;98054.22;;;1.64;100.00
38530;BME280;24301;54.332;48.386;2023-03-13T06:50:40;98052.50;;;1.66;100.00
38530;BME280;24301;54.332;48.386;2023-03-13T06:53:06;98066.34;;;1.71;100.00
38530;BME280;24301;54.332;48.386;2023-03-13T06:55:32;98070.72;;;1.77;100.00
38530;BME280;24301;54.332;48.386;2023-03-13T06:57:58;98063.81;;;1.77;100.00
38530;BME280;24301;54.332;48.386;2023-03-13T07:00:24;98075.06;;;1.81;100.00
38530;BME280;24301;54.332;48.386;2023-03-13T07:02:50;98075.94;;;1.86;100.00
38530;BME280;24301;54.332;48.386;2023-03-13T07:05:16;98074.16;;;1.76;100.00
38530;BME280;24301;54.332;48.386;2023-03-13T07:07:42;98094.06;;;1.78;100.00
38530;BME280;24301;54.332;48.386;2023-03-13T07:10:09;98094.09;;;1.81;100.00
38530;BME280;24301;54.332;48.386;2023-03-13T07:12:36;98095.78;;;1.78;99.18
38530;BME280;24301;54.332;48.386;2023-03-13T07:15:03;98101.88;;;1.86;99.37
38530;BME280;24301;54.332;48.386;2023-03-13T07:17:29;98102.88;;;2.07;98.47
38530;BME280;24301;54.332;48.386;2023-03-13T07:19:54;98109.13;;;2.49;96.85
38530;BME280;24301;54.332;48.386;2023-03-13T07:22:20;98112.75;;;2.92;93.67
38530;BME280;24301;54.332;48.386;2023-03-13T07:24:47;98116.03;;;4.74;92.99
38530;BME280;24301;54.332;48.386;2023-03-13T07:27:13;98135.47;;;7.23;91.32
38530;BME280;24301;54.332;48.386;2023-03-13T07:29:41;98140.19;;;9.43;85.33
38530;BME280;24301;54.332;48.386;2023-03-13T07:32:07;98127.28;;;10.74;79.81
38530;BME280;24301;54.332;48.386;2023-03-13T07:34:33;98135.63;;;10.22;76.47
38530;BME280;24301;54.332;48.386;2023-03-13T07:36:59;98139.66;;;8.40;73.32
38530;BME280;24301;54.332;48.386;2023-03-13T07:39:25;98147.63;;;6.60;74.10
38530;BME280;24301;54.332;48.386;2023-03-13T07:41:51;98164.25;;;5.46;76.35
38530;BME280;24301;54.332;48.386;2023-03-13T07:44:16;98162.22;;;5.86;78.54
38530;BME280;24301;54.332;48.386;2023-03-13T07:46:42;98166.47;;;7.50;77.11
38530;BME280;24301;54.332;48.386;2023-03-13T07:49:08;98165.34;;;7.66;73.33
38530;BME280;24301;54.332;48.386;2023-03-13T07:51:34;98179.13;;;7.78;71.39
38530;BME280;24301;54.332;48.386;2023-03-13T07:54:00;98183.00;;;7.52;70.30
38530;BME280;24301;54.332;48.386;2023-03-13T07:56:26;98179.09;;;8.31;70.80
38530;BME280;24301;54.332;48.386;2023-03-13T07:58:51;98196.47;;;9.67;70.88
38530;BME280;24301;54.332;48.386;2023-03-13T08:01:22;98192.88;;;11.67;68.92
38530;BME280;24301;54.332;48.386;2023-03-13T08:03:48;98201.78;;;12.71;67.56
38530;BME280;24301;54.332;48.386;2023-03-13T08:06:22;98205.13;;;13.71;66.09
38530;BME280;24301;54.332;48.386;2023-03-13T08:08:50;98204.84;;;14.44;62.85
38530;BME280;24301;54.332;48.386;2023-03-13T08:11:18;98200.59;;;14.19;60.46
38530;BME280;24301;54.332;48.386;2023-03-13T08:13:44;98203.78;;;13.83;58.70
38530;BME280;24301;54.332;48.386;2023-03-13T08:16:13;98208.81;;;13.67;53.88
38530;BME280;24301;54.332;48.386;2023-03-13T08:18:43;98195.53;;;13.46;52.53
38530;BME280;24301;54.332;48.386;2023-03-13T08:21:14;98202.97;;;11.81;54.04
38530;BME280;24301;54.332;48.386;2023-03-13T08:23:40;98216.63;;;9.65;56.95
38530;BME280;24301;54.332;48.386;2023-03-13T08:26:10;98210.09;;;8.05;53.52
38530;BME280;24301;54.332;48.386;2023-03-13T08:28:37;98219.47;;;6.95;60.52
38530;BME280;24301;54.332;48.386;2023-03-13T08:31:12;98231.41;;;6.33;57.89
38530;BME280;24301;54.332;48.386;2023-03-13T08:33:41;98235.28;;;5.78;60.26
38530;BME280;24301;54.332;48.386;2023-03-13T08:36:24;98219.91;;;5.36;60.60
38530;BME280;24301;54.332;48.386;2023-03-13T08:38:51;98233.19;;;4.72;61.84
38530;BME280;24301;54.332;48.386;2023-03-13T08:41:20;98248.00;;;4.55;63.42
38530;BME280;24301;54.332;48.386;2023-03-13T08:43:46;98258.38;;;4.63;64.87
38530;BME280;24301;54.332;48.386;2023-03-13T08:46:13;98259.25;;;4.68;65.48
38530;BME280;24301;54.332;48.386;2023-03-13T08:48:39;98264.47;;;4.51;64.48
38530;BME280;24301;54.332;48.386;2023-03-13T08:51:08;98261.03;;;4.17;63.49
38530;BME280;24301;54.332;48.386;2023-03-13T08:53:35;98280.09;;;3.99;63.45
38530;BME280;24301;54.332;48.386;2023-03-13T08:56:02;98282.72;;;3.99;64.56
38530;BME280;24301;54.332;48.386;2023-03-13T08:58:29;98285.28;;;3.88;64.97
38530;BME280;24301;54.332;48.386;2023-03-13T09:01:03;98278.31;;;3.78;62.20
38530;BME280;24301;54.332;48.386;2023-03-13T09:03:30;98292.16;;;3.55;64.46
38530;BME280;24301;54.332;48.386;2023-03-13T09:05:57;98290.38;;;3.45;65.43
38530;BME280;24301;54.332;48.386;2023-03-13T09:08:24;98294.66;;;3.32;64.59
38530;BME280;24301;54.332;48.386;2023-03-13T09:11:00;98295.53;;;3.37;66.12
38530;BME280;24301;54.332;48.386;2023-03-13T09:13:28;98305.91;;;3.28;64.51
38530;BME280;24301;54.332;48.386;2023-03-13T09:15:59;98311.03;;;3.08;63.14
38530;BME280;24301;54.332;48.386;2023-03-13T09:18:26;98306.63;;;2.97;62.81
38530;BME280;24301;54.332;48.386;2023-03-13T09:20:52;98306.53;;;2.80;62.34
38530;BME280;24301;54.332;48.386;2023-03-13T09:23:20;98313.41;;;2.73;64.67
38530;BME280;24301;54.332;48.386;2023-03-13T09:25:46;98301.22;;;2.62;63.29
38530;BME280;24301;54.332;48.386;2023-03-13T09:28:12;98314.19;;;2.62;65.44
38530;BME280;24301;54.332;48.386;2023-03-13T09:30:38;98317.66;;;2.59;63.65
38530;BME280;24301;54.332;48.386;2023-03-13T09:33:04;98340.22;;;2.72;65.34
38530;BME280;24301;54.332;48.386;2023-03-13T09:35:30;98341.13;;;2.79;66.24
38530;BME280;24301;54.332;48.386;2023-03-13T09:37:56;98336.88;;;2.89;66.59
38530;BME280;24301;54.332;48.386;2023-03-13T09:40:23;98347.16;;;2.73;64.97
38530;BME280;24301;54.332;48.386;2023-03-13T09:42:52;98360.16;;;2.78;66.04
38530;BME280;24301;54.332;48.386;2023-03-13T09:47:54;98363.69;;;2.86;66.31
38530;BME280;24301;54.332;48.386;2023-03-13T09:50:33;98358.50;;;2.90;62.95
38530;BME280;24301;54.332;48.386;2023-03-13T09:53:10;98369.66;;;2.78;62.65
38530;BME280;24301;54.332;48.386;2023-03-13T09:55:40;98355.03;;;2.83;65.63
38530;BME280;24301;54.332;48.386;2023-03-13T09:58:22;98361.03;;;2.77;63.17
38530;BME280;24301;54.332;48.386;2023-03-13T10:01:03;98375.72;;;2.72;60.76
38530;BME280;24301;54.332;48.386;2023-03-13T10:03:41;98368.81;;;2.77;65.23
38530;BME280;24301;54.332;48.386;2023-03-13T10:06:18;98365.19;;;2.56;60.09
38530;BME280;24301;54.332;48.386;2023-03-13T10:08:45;98379.00;;;2.52;64.54
38530;BME280;24301;54.332;48.386;2023-03-13T10:11:32;98370.44;;;2.63;63.04
38530;BME280;24301;54.332;48.386;2023-03-13T10:14:14;98371.19;;;2.46;61.48
38530;BME280;24301;54.332;48.386;2023-03-13T10:19:16;98378.88;;;2.38;64.50
38530;BME280;24301;54.332;48.386;2023-03-13T10:21:49;98377.25;;;2.48;63.67
38530;BME280;24301;54.332;48.386;2023-03-13T10:26:56;98387.56;;;2.40;62.40
38530;BME280;24301;54.332;48.386;2023-03-13T10:29:25;98400.66;;;2.57;65.54
38530;BME280;24301;54.332;48.386;2023-03-13T10:32:13;98390.41;;;2.75;61.01
38530;BME280;24301;54.332;48.386;2023-03-13T10:37:13;98396.47;;;2.72;61.86
38530;BME280;24301;54.332;48.386;2023-03-13T10:39:40;98408.56;;;2.70;64.26
38530;BME280;24301;54.332;48.386;2023-03-13T10:42:41;98421.72;;;2.92;63.17
38530;BME280;24301;54.332;48.386;2023-03-13T10:45:16;98419.88;;;2.78;60.70
38530;BME280;24301;54.332;48.386;2023-03-13T10:47:43;98425.88;;;2.72;65.13
38530;BME280;24301;54.332;48.386;2023-03-13T10:50:17;98426.75;;;2.71;62.39
38530;BME280;24301;54.332;48.386;2023-03-13T10:52:47;98443.19;;;2.72;65.64
38530;BME280;24301;54.332;48.386;2023-03-13T10:55:19;98432.81;;;2.73;61.22
38530;BME280;24301;54.332;48.386;2023-03-13T10:57:58;98440.59;;;2.73;61.08
38530;BME280;24301;54.332;48.386;2023-03-13T11:02:52;98464.19;;;2.97;64.61
38530;BME280;24301;54.332;48.386;2023-03-13T11:07:52;98453.66;;;2.80;61.17
38530;BME280;24301;54.332;48.386;2023-03-13T11:10:28;98463.97;;;2.73;57.85
38530;BME280;24301;54.332;48.386;2023-03-13T11:12:56;98467.44;;;2.74;61.77
38530;BME280;24301;54.332;48.386;2023-03-13T11:15:45;98475.22;;;2.71;61.61
38530;BME280;24301;54.332;48.386;2023-03-13T11:20:46;98475.09;;;2.62;59.61
38530;BME280;24301;54.332;48.386;2023-03-13T11:26:09;98485.38;;;2.51;57.85
38530;BME280;24301;54.332;48.386;2023-03-13T11:31:06;98496.63;;;2.51;62.59
38530;BME280;24301;54.332;48.386;2023-03-13T11:33:38;98508.81;;;2.58;60.79
38530;BME280;24301;54.332;48.386;2023-03-13T11:36:42;98515.84;;;2.69;62.88
38530;BME280;24301;54.332;48.386;2023-03-13T11:39:34;98478.69;;;2.78;55.41
38530;BME280;24301;54.332;48.386;2023-03-13T11:48:33;98505.47;;;2.70;57.70
38530;BME280;24301;54.332;48.386;2023-03-13T11:54:01;98524.44;;;2.65;59.98
38530;BME280;24301;54.332;48.386;2023-03-13T11:59:36;98529.53;;;2.54;58.53
38530;BME280;24301;54.332;48.386;2023-03-13T12:05:00;98546.06;;;2.64;60.29
38530;BME280;24301;54.332;48.386;2023-03-13T12:07:38;98538.19;;;2.54;59.51
38530;BME280;24301;54.332;48.386;2023-03-13T12:10:12;98554.78;;;2.69;61.94
38530;BME280;24301;54.332;48.386;2023-03-13T12:15:27;98560.97;;;2.83;60.80
38530;BME280;24301;54.332;48.386;2023-03-13T12:18:22;98558.38;;;2.82;60.90
38530;BME280;24301;54.332;48.386;2023-03-13T12:24:11;98567.78;;;2.72;59.22
38530;BME280;24301;54.332;48.386;2023-03-13T12:27:16;98562.50;;;2.63;56.88
38530;BME280;24301;54.332;48.386;2023-03-13T12:30:02;98568.59;;;2.66;59.06
38530;BME280;24301;54.332;48.386;2023-03-13T12:38:14;98564.28;;;2.67;55.93
38530;BME280;24301;54.332;48.386;2023-03-13T12:43:48;98583.81;;;2.37;61.27
38530;BME280;24301;54.332;48.386;2023-03-13T13:00:40;98614.88;;;2.29;58.94
38530;BME280;24301;54.332;48.386;2023-03-13T13:06:09;98620.81;;;2.22;56.43
38530;BME280;24301;54.332;48.386;2023-03-13T13:08:37;98631.94;;;2.13;60.57
38530;BME280;24301;54.332;48.386;2023-03-13T13:35:45;98651.63;;;2.00;61.60
38530;BME280;24301;54.332;48.386;2023-03-13T13:40:58;98646.34;;;1.92;56.54
38530;BME280;24301;54.332;48.386;2023-03-13T13:43:24;98654.84;;;1.85;62.12
38530;BME280;24301;54.332;48.386;2023-03-13T13:46:04;98660.94;;;1.87;60.36
38530;BME280;24301;54.332;48.386;2023-03-13T13:48:38;98674.53;;;1.72;60.46
38530;BME280;24301;54.332;48.386;2023-03-13T13:53:45;98658.97;;;1.72;59.94
38530;BME280;24301;54.332;48.386;2023-03-13T14:02:35;98673.59;;;1.65;59.98
38530;BME280;24301;54.332;48.386;2023-03-13T14:04:43;98677.66;;;1.51;58.12
38530;BME280;24301;54.332;48.386;2023-03-13T14:10:49;98687.53;;;1.23;58.71
38530;BME280;24301;54.332;48.386;2023-03-13T14:13:21;98700.34;;;1.17;58.97
38530;BME280;24301;54.332;48.386;2023-03-13T14:15:50;98702.88;;;1.13;59.71
38530;BME280;24301;54.332;48.386;2023-03-13T14:18:29;98705.28;;;1.04;58.77
38530;BME280;24301;54.332;48.386;2023-03-13T14:20:57;98717.22;;;0.96;59.48
38530;BME280;24301;54.332;48.386;2023-03-13T14:23:36;98722.28;;;0.90;59.14
38530;BME280;24301;54.332;48.386;2023-03-13T14:26:24;98715.25;;;0.85;59.47
38530;BME280;24301;54.332;48.386;2023-03-13T14:28:58;98719.47;;;0.79;60.14
38530;BME280;24301;54.332;48.386;2023-03-13T14:31:30;98730.56;;;0.75;60.95
38530;BME280;24301;54.332;48.386;2023-03-13T14:33:58;98739.91;;;0.66;60.92
38530;BME280;24301;54.332;48.386;2023-03-13T14:36:24;98741.53;;;0.63;61.31
38530;BME280;24301;54.332;48.386;2023-03-13T14:38:53;98744.06;;;0.60;61.89
38530;BME280;24301;54.332;48.386;2023-03-13T14:43:53;98745.56;;;0.48;60.96
38530;BME280;24301;54.332;48.386;2023-03-13T14:46:33;98756.63;;;0.42;61.50
38530;BME280;24301;54.332;48.386;2023-03-13T14:49:16;98759.09;;;0.38;61.84
38530;BME280;24301;54.332;48.386;2023-03-13T14:51:43;98759.03;;;0.35;62.71
38530;BME280;24301;54.332;48.386;2023-03-13T14:54:30;98755.47;;;0.30;62.20
38530;BME280;24301;54.332;48.386;2023-03-13T14:57:18;98767.50;;;0.27;61.89
38530;BME280;24301;54.332;48.386;2023-03-13T14:59:46;98766.31;;;0.14;62.52
38530;BME280;24301;54.332;48.386;2023-03-13T15:07:18;98777.28;;;0.04;63.17
38530;BME280;24301;54.332;48.386;2023-03-13T15:09:45;98782.47;;;0.04;63.76
38530;BME280;24301;54.332;48.386;2023-03-13T15:12:21;98792.91;;;0.09;63.14
38530;BME280;24301;54.332;48.386;2023-03-13T15:14:50;98792.91;;;0.09;63.14
38530;BME280;24301;54.332;48.386;2023-03-13T15:19:55;98818.69;;;0.06;63.20
38530;BME280;24301;54.332;48.386;2023-03-13T15:22:34;98806.38;;;-0.05;63.69
38530;BME280;24301;54.332;48.386;2023-03-13T15:25:00;98820.91;;;-0.08;64.11
38530;BME280;24301;54.332;48.386;2023-03-13T15:27:27;98827.69;;;-0.13;64.58
38530;BME280;24301;54.332;48.386;2023-03-13T15:29:53;98834.50;;;-0.16;64.53